»·PEaware :: SWA421 KPHX-KGJT

SWA421 :: KPHX-KGJT

FLIGHT INFORMATION

Flight Status: Arrived
Operator:
Southwest Airlines
More flights by this operator :: More flights under this callsign
Pilot: Brian A. (9771)
Aircraft: BOEING 737-800
(B738)
More flights by this aircraft type
Origin: KPHX Phoenix Sky Harbor Intl
United States
Destination: KGJT Walker
United States
More flights between these airports :: More routes between these airports
Route: + / FLG107013 GJT
File this flight plan on PilotEdge
Remarks:
Altitude:
(Current/Filed)
29,000ft
Speed:
(Current/Filed)
425kts
Departed: 01-Oct-17 05:02 PM
Arrived: 01-Oct-17 06:03 PM
Distance/Time
Traveled:
380nm/1:00
Distance/Time
To Go:
Arrived

Flight Plot

Page will automatically refresh every two minutes.

Flight plan parsing failed; only flown route is shown


Map Options




Map Legend


Flown Route
Filed Route
Departure Airport
Arrival Airport
Navaid (VOR, NDB)
Fix

Horizontal Profiles

Position Reports

Time Latitude Longitude Heading Altitude Ground
Speed
01-Oct-17 16:44 33.436849 -111.998675 270 1142ft 0kts
01-Oct-17 16:45 33.436849 -111.998675 270 1142ft 0kts
01-Oct-17 16:46 33.436849 -111.998675 270 1142ft 0kts
01-Oct-17 16:47 33.436849 -111.998675 270 1142ft 0kts
01-Oct-17 16:48 33.436849 -111.998675 270 1142ft 0kts
01-Oct-17 16:49 33.436849 -111.998675 270 1142ft 0kts
01-Oct-17 16:50 33.436849 -111.998675 270 1143ft 0kts
01-Oct-17 16:51 33.436849 -111.998675 270 1143ft 0kts
01-Oct-17 16:52 33.436849 -111.998675 270 1143ft 0kts
01-Oct-17 16:53 33.436849 -111.998675 270 1143ft 0kts
01-Oct-17 16:54 33.436849 -111.998675 270 1143ft 0kts
01-Oct-17 16:55 33.436849 -111.998617 270 1143ft 1kts
01-Oct-17 16:56 33.436849 -111.998219 270 1143ft 0kts
01-Oct-17 16:57 33.436849 -111.998219 270 1143ft 0kts
01-Oct-17 16:58 33.436849 -111.998219 270 1143ft 0kts
01-Oct-17 16:59 33.436849 -111.998219 270 1143ft 0kts
01-Oct-17 17:00 33.436849 -111.998219 270 1143ft 0kts
01-Oct-17 17:01 33.436849 -111.998220 270 1143ft 0kts
01-Oct-17 17:02 33.439490 -111.998351 1 1143ft 20kts
01-Oct-17 17:03 33.439770 -111.995179 92 1143ft 9kts
01-Oct-17 17:04 33.439897 -111.991178 22 1143ft 4kts
01-Oct-17 17:05 33.440785 -111.991490 304 1143ft 14kts
01-Oct-17 17:06 33.440947 -112.016511 270 1361ft 155kts
01-Oct-17 17:07 33.445796 -112.077618 272 3225ft 226kts
01-Oct-17 17:08 33.478294 -112.145936 334 5823ft 265kts
01-Oct-17 17:09 33.555206 -112.171445 356 8459ft 303kts
01-Oct-17 17:10 33.625103 -112.116680 47 11056ft 334kts
01-Oct-17 17:11 33.693992 -112.023115 47 12212ft 405kts
01-Oct-17 17:12 33.769422 -111.919970 46 14882ft 416kts
01-Oct-17 17:13 33.846864 -111.814443 45 17365ft 426kts
01-Oct-17 17:14 33.926105 -111.705457 45 19505ft 438kts
01-Oct-17 17:15 34.009898 -111.597303 35 21413ft 444kts
01-Oct-17 17:16 34.113392 -111.514171 27 23127ft 451kts
01-Oct-17 17:17 34.220433 -111.432347 27 24664ft 461kts
01-Oct-17 17:18 34.327906 -111.349590 26 26640ft 459kts
01-Oct-17 17:19 34.436395 -111.265948 26 28534ft 459kts
01-Oct-17 17:20 34.544360 -111.182034 26 28952ft 460kts
01-Oct-17 17:21 34.659282 -111.152053 335 28943ft 416kts
01-Oct-17 17:22 34.758518 -111.220266 323 28933ft 408kts
01-Oct-17 17:23 34.854470 -111.293193 323 28954ft 406kts
01-Oct-17 17:24 34.950590 -111.366202 323 28955ft 406kts
01-Oct-17 17:25 35.047104 -111.437336 332 28967ft 412kts
01-Oct-17 17:26 35.163685 -111.413717 19 28992ft 460kts
01-Oct-17 17:27 35.277724 -111.341359 20 28990ft 461kts
01-Oct-17 17:28 35.392139 -111.268232 20 28976ft 476kts
01-Oct-17 17:29 35.513045 -111.190937 20 28964ft 498kts
01-Oct-17 17:30 35.635584 -111.112359 20 28958ft 497kts
01-Oct-17 17:31 35.758172 -111.033383 20 28952ft 498kts
01-Oct-17 17:32 35.881278 -110.953758 20 28934ft 499kts
01-Oct-17 17:33 36.004019 -110.874103 20 28894ft 500kts
01-Oct-17 17:34 36.127706 -110.793509 19 28874ft 504kts
01-Oct-17 17:35 36.252011 -110.712243 19 28860ft 504kts
01-Oct-17 17:36 36.375991 -110.630891 19 28842ft 506kts
01-Oct-17 17:37 36.500585 -110.548838 19 28838ft 506kts
01-Oct-17 17:38 36.624754 -110.466763 19 28839ft 506kts
01-Oct-17 17:39 36.749011 -110.384325 19 28843ft 508kts
01-Oct-17 17:40 36.873999 -110.301095 19 28849ft 508kts
01-Oct-17 17:41 36.998677 -110.217766 19 28846ft 510kts
01-Oct-17 17:42 37.124064 -110.133716 18 28856ft 510kts
01-Oct-17 17:43 37.248421 -110.046385 22 28867ft 517kts
01-Oct-17 17:44 37.370478 -109.950021 22 28871ft 520kts
01-Oct-17 17:45 37.493307 -109.852597 22 28883ft 522kts
01-Oct-17 17:46 37.616196 -109.755369 22 28889ft 522kts
01-Oct-17 17:47 37.739340 -109.657172 22 28893ft 522kts
01-Oct-17 17:48 37.862022 -109.558903 22 28499ft 524kts
01-Oct-17 17:49 37.985603 -109.459525 24 25803ft 531kts
01-Oct-17 17:50 38.109443 -109.359562 25 23097ft 520kts
01-Oct-17 17:51 38.228815 -109.262805 27 20401ft 498kts
01-Oct-17 17:52 38.342574 -109.170280 28 17687ft 464kts
01-Oct-17 17:53 38.445186 -109.086666 28 15262ft 410kts
01-Oct-17 17:54 38.532105 -109.015315 28 14992ft 346kts
01-Oct-17 17:55 38.613560 -108.947332 33 14990ft 353kts
01-Oct-17 17:56 38.676157 -108.849373 53 14962ft 366kts
01-Oct-17 17:57 38.733673 -108.743178 53 14043ft 352kts
01-Oct-17 17:58 38.787592 -108.644236 53 12938ft 327kts
01-Oct-17 17:59 38.837908 -108.550810 53 11184ft 314kts
01-Oct-17 18:00 38.882403 -108.467813 54 10563ft 255kts
01-Oct-17 18:01 38.921009 -108.395873 52 9557ft 237kts
01-Oct-17 18:02 38.967010 -108.341942 37 8548ft 209kts
01-Oct-17 18:03 39.013725 -108.350888 312 8517ft 190kts
01-Oct-17 18:04 39.049421 -108.401796 318 7465ft 188kts
01-Oct-17 18:05 39.081304 -108.449306 302 5986ft 153kts
01-Oct-17 18:06 39.105387 -108.491182 307 5359ft 141kts
01-Oct-17 18:07 39.125552 -108.527259 306 4866ft 38kts
01-Oct-17 18:08 39.126238 -108.530094 219 4866ft 0kts
01-Oct-17 18:09 39.125259 -108.529019 126 4866ft 4kts
01-Oct-17 18:10 39.123466 -108.528632 216 4866ft 12kts
01-Oct-17 18:11 39.123366 -108.528727 216 4866ft 0kts
01-Oct-17 18:12 39.123366 -108.528727 216 4866ft 0kts
01-Oct-17 18:13 39.123366 -108.528727 216 4866ft 0kts
01-Oct-17 18:14 39.123366 -108.528727 216 4866ft 0kts
01-Oct-17 18:15 39.123366 -108.528727 216 4866ft 0kts
01-Oct-17 18:16 39.123366 -108.528727 216 4866ft 0kts

Navigation Log

Ident Type
Flight plan parsing failed, navigation log unavailable